sensor_id;sensor_type;location;lat;lon;timestamp;P1;durP1;ratioP1;P2;durP2;ratioP2
14939;SDS011;11825;51.898;8.202;2024-02-28T00:06:35;33.60;;;23.53;;
14939;SDS011;11825;51.898;8.202;2024-02-28T00:11:44;32.63;;;23.23;;
14939;SDS011;11825;51.898;8.202;2024-02-28T00:16:49;30.03;;;21.80;;
14939;SDS011;11825;51.898;8.202;2024-02-28T00:21:52;32.80;;;22.13;;
14939;SDS011;11825;51.898;8.202;2024-02-28T00:26:56;31.00;;;22.53;;
14939;SDS011;11825;51.898;8.202;2024-02-28T00:31:58;28.20;;;21.60;;
14939;SDS011;11825;51.898;8.202;2024-02-28T00:37:01;33.37;;;22.73;;
14939;SDS011;11825;51.898;8.202;2024-02-28T00:42:06;30.30;;;22.87;;
14939;SDS011;11825;51.898;8.202;2024-02-28T00:47:12;30.03;;;21.10;;
14939;SDS011;11825;51.898;8.202;2024-02-28T00:52:20;28.53;;;21.17;;
14939;SDS011;11825;51.898;8.202;2024-02-28T00:57:24;30.97;;;21.23;;
14939;SDS011;11825;51.898;8.202;2024-02-28T01:02:29;37.57;;;25.97;;
14939;SDS011;11825;51.898;8.202;2024-02-28T01:07:31;37.90;;;24.40;;
14939;SDS011;11825;51.898;8.202;2024-02-28T01:12:36;36.63;;;23.10;;
14939;SDS011;11825;51.898;8.202;2024-02-28T01:17:39;53.03;;;26.00;;
14939;SDS011;11825;51.898;8.202;2024-02-28T01:22:53;92.87;;;32.63;;
14939;SDS011;11825;51.898;8.202;2024-02-28T01:27:57;64.13;;;28.10;;
14939;SDS011;11825;51.898;8.202;2024-02-28T01:32:59;73.30;;;29.80;;
14939;SDS011;11825;51.898;8.202;2024-02-28T01:38:04;108.23;;;28.03;;
14939;SDS011;11825;51.898;8.202;2024-02-28T01:49:03;59.53;;;25.20;;
14939;SDS011;11825;51.898;8.202;2024-02-28T01:54:10;74.23;;;25.20;;
14939;SDS011;11825;51.898;8.202;2024-02-28T01:59:20;73.13;;;24.37;;
14939;SDS011;11825;51.898;8.202;2024-02-28T02:04:27;87.77;;;25.43;;
14939;SDS011;11825;51.898;8.202;2024-02-28T02:09:30;95.03;;;27.33;;
14939;SDS011;11825;51.898;8.202;2024-02-28T02:14:33;76.70;;;22.87;;
14939;SDS011;11825;51.898;8.202;2024-02-28T02:19:41;61.20;;;22.30;;
14939;SDS011;11825;51.898;8.202;2024-02-28T02:24:48;108.00;;;26.70;;
14939;SDS011;11825;51.898;8.202;2024-02-28T02:29:51;87.47;;;30.23;;
14939;SDS011;11825;51.898;8.202;2024-02-28T02:34:56;76.87;;;27.33;;
14939;SDS011;11825;51.898;8.202;2024-02-28T02:40:00;83.50;;;30.60;;
14939;SDS011;11825;51.898;8.202;2024-02-28T02:45:03;90.67;;;31.53;;
14939;SDS011;11825;51.898;8.202;2024-02-28T02:50:08;181.20;;;37.27;;
14939;SDS011;11825;51.898;8.202;2024-02-28T02:55:15;69.43;;;29.00;;
14939;SDS011;11825;51.898;8.202;2024-02-28T03:00:22;128.20;;;32.27;;
14939;SDS011;11825;51.898;8.202;2024-02-28T03:05:27;98.73;;;29.43;;
14939;SDS011;11825;51.898;8.202;2024-02-28T03:10:33;96.67;;;30.87;;
14939;SDS011;11825;51.898;8.202;2024-02-28T03:15:35;99.53;;;28.80;;
14939;SDS011;11825;51.898;8.202;2024-02-28T03:27:12;65.73;;;29.00;;
14939;SDS011;11825;51.898;8.202;2024-02-28T03:32:17;81.20;;;28.20;;
14939;SDS011;11825;51.898;8.202;2024-02-28T03:37:24;116.27;;;27.67;;
14939;SDS011;11825;51.898;8.202;2024-02-28T03:42:31;76.00;;;26.03;;
14939;SDS011;11825;51.898;8.202;2024-02-28T03:47:33;79.33;;;25.87;;
14939;SDS011;11825;51.898;8.202;2024-02-28T03:52:35;34.50;;;20.43;;
14939;SDS011;11825;51.898;8.202;2024-02-28T03:57:54;83.80;;;26.20;;
14939;SDS011;11825;51.898;8.202;2024-02-28T04:02:59;47.37;;;21.80;;
14939;SDS011;11825;51.898;8.202;2024-02-28T04:08:01;59.40;;;20.33;;
14939;SDS011;11825;51.898;8.202;2024-02-28T04:13:06;38.50;;;18.33;;
14939;SDS011;11825;51.898;8.202;2024-02-28T04:18:08;28.53;;;18.73;;
14939;SDS011;11825;51.898;8.202;2024-02-28T04:23:12;40.63;;;20.57;;
14939;SDS011;11825;51.898;8.202;2024-02-28T04:28:25;59.67;;;20.17;;
14939;SDS011;11825;51.898;8.202;2024-02-28T04:33:30;35.63;;;17.67;;
14939;SDS011;11825;51.898;8.202;2024-02-28T04:38:43;29.70;;;17.83;;
14939;SDS011;11825;51.898;8.202;2024-02-28T04:43:45;84.00;;;19.50;;
14939;SDS011;11825;51.898;8.202;2024-02-28T04:48:57;29.57;;;17.87;;
14939;SDS011;11825;51.898;8.202;2024-02-28T04:54:03;42.70;;;19.17;;
14939;SDS011;11825;51.898;8.202;2024-02-28T04:59:06;35.20;;;19.20;;
14939;SDS011;11825;51.898;8.202;2024-02-28T05:04:11;44.17;;;21.37;;
14939;SDS011;11825;51.898;8.202;2024-02-28T05:09:18;55.13;;;21.47;;
14939;SDS011;11825;51.898;8.202;2024-02-28T05:20:03;42.43;;;19.93;;
14939;SDS011;11825;51.898;8.202;2024-02-28T05:25:05;53.90;;;20.90;;
14939;SDS011;11825;51.898;8.202;2024-02-28T05:30:10;66.33;;;23.80;;
14939;SDS011;11825;51.898;8.202;2024-02-28T05:35:13;48.07;;;24.23;;
14939;SDS011;11825;51.898;8.202;2024-02-28T05:40:16;38.43;;;22.40;;
14939;SDS011;11825;51.898;8.202;2024-02-28T05:45:22;41.83;;;23.13;;
14939;SDS011;11825;51.898;8.202;2024-02-28T05:50:25;61.97;;;26.50;;
14939;SDS011;11825;51.898;8.202;2024-02-28T05:55:28;53.53;;;27.07;;
14939;SDS011;11825;51.898;8.202;2024-02-28T06:00:34;56.00;;;26.97;;
14939;SDS011;11825;51.898;8.202;2024-02-28T06:05:39;61.07;;;28.00;;
14939;SDS011;11825;51.898;8.202;2024-02-28T06:10:47;67.10;;;28.87;;
14939;SDS011;11825;51.898;8.202;2024-02-28T06:16:15;54.67;;;27.03;;
14939;SDS011;11825;51.898;8.202;2024-02-28T06:21:24;61.70;;;30.50;;
14939;SDS011;11825;51.898;8.202;2024-02-28T06:26:31;71.03;;;33.07;;
14939;SDS011;11825;51.898;8.202;2024-02-28T06:31:35;61.63;;;30.57;;
14939;SDS011;11825;51.898;8.202;2024-02-28T06:36:37;73.23;;;31.50;;
14939;SDS011;11825;51.898;8.202;2024-02-28T06:41:42;88.47;;;35.10;;
14939;SDS011;11825;51.898;8.202;2024-02-28T06:46:47;65.27;;;31.53;;
14939;SDS011;11825;51.898;8.202;2024-02-28T06:51:54;69.03;;;31.43;;
14939;SDS011;11825;51.898;8.202;2024-02-28T06:57:05;67.73;;;28.80;;
14939;SDS011;11825;51.898;8.202;2024-02-28T07:02:12;72.97;;;30.70;;
14939;SDS011;11825;51.898;8.202;2024-02-28T07:13:53;65.77;;;31.43;;
14939;SDS011;11825;51.898;8.202;2024-02-28T07:19:08;66.00;;;34.03;;
14939;SDS011;11825;51.898;8.202;2024-02-28T07:24:10;70.33;;;33.30;;
14939;SDS011;11825;51.898;8.202;2024-02-28T07:29:13;71.53;;;31.83;;
14939;SDS011;11825;51.898;8.202;2024-02-28T07:34:17;68.80;;;32.33;;
14939;SDS011;11825;51.898;8.202;2024-02-28T07:39:39;62.57;;;31.50;;
14939;SDS011;11825;51.898;8.202;2024-02-28T07:44:55;67.20;;;29.83;;
14939;SDS011;11825;51.898;8.202;2024-02-28T07:50:00;66.93;;;31.50;;
14939;SDS011;11825;51.898;8.202;2024-02-28T07:55:12;63.83;;;31.10;;
14939;SDS011;11825;51.898;8.202;2024-02-28T08:00:22;52.97;;;28.57;;
14939;SDS011;11825;51.898;8.202;2024-02-28T08:05:36;70.90;;;32.97;;
14939;SDS011;11825;51.898;8.202;2024-02-28T08:17:11;57.50;;;32.23;;
14939;SDS011;11825;51.898;8.202;2024-02-28T08:28:20;69.47;;;33.03;;
14939;SDS011;11825;51.898;8.202;2024-02-28T08:34:24;69.00;;;33.87;;
14939;SDS011;11825;51.898;8.202;2024-02-28T08:40:59;81.10;;;35.03;;
14939;SDS011;11825;51.898;8.202;2024-02-28T09:06:29;83.80;;;40.83;;
14939;SDS011;11825;51.898;8.202;2024-02-28T09:50:19;91.13;;;41.43;;
14939;SDS011;11825;51.898;8.202;2024-02-28T09:56:25;89.77;;;41.00;;
14939;SDS011;11825;51.898;8.202;2024-02-28T10:15:09;78.67;;;37.00;;
14939;SDS011;11825;51.898;8.202;2024-02-28T11:18:10;60.57;;;34.40;;
14939;SDS011;11825;51.898;8.202;2024-02-28T11:55:41;56.20;;;32.57;;
14939;SDS011;11825;51.898;8.202;2024-02-28T12:07:45;56.47;;;33.50;;
14939;SDS011;11825;51.898;8.202;2024-02-28T12:58:48;42.03;;;25.43;;
14939;SDS011;11825;51.898;8.202;2024-02-28T13:04:22;40.63;;;26.90;;
14939;SDS011;11825;51.898;8.202;2024-02-28T13:52:44;44.00;;;27.43;;
14939;SDS011;11825;51.898;8.202;2024-02-28T14:16:30;39.37;;;26.53;;
14939;SDS011;11825;51.898;8.202;2024-02-28T14:41:47;44.30;;;28.63;;
14939;SDS011;11825;51.898;8.202;2024-02-28T14:47:34;42.90;;;27.20;;
14939;SDS011;11825;51.898;8.202;2024-02-28T15:05:00;38.77;;;26.23;;
14939;SDS011;11825;51.898;8.202;2024-02-28T15:35:44;41.07;;;26.53;;
14939;SDS011;11825;51.898;8.202;2024-02-28T16:13:47;40.33;;;27.20;;
14939;SDS011;11825;51.898;8.202;2024-02-28T16:25:16;44.17;;;29.63;;
14939;SDS011;11825;51.898;8.202;2024-02-28T16:50:17;41.40;;;28.50;;
14939;SDS011;11825;51.898;8.202;2024-02-28T17:08:32;44.17;;;30.43;;
14939;SDS011;11825;51.898;8.202;2024-02-28T17:20:01;46.27;;;31.20;;
14939;SDS011;11825;51.898;8.202;2024-02-28T17:38:24;54.37;;;36.53;;
14939;SDS011;11825;51.898;8.202;2024-02-28T17:43:26;152.33;;;96.70;;
14939;SDS011;11825;51.898;8.202;2024-02-28T17:48:28;85.30;;;54.47;;
14939;SDS011;11825;51.898;8.202;2024-02-28T17:53:33;53.40;;;37.97;;
14939;SDS011;11825;51.898;8.202;2024-02-28T17:58:39;52.40;;;37.73;;
14939;SDS011;11825;51.898;8.202;2024-02-28T18:15:33;48.57;;;32.90;;
14939;SDS011;11825;51.898;8.202;2024-02-28T18:20:38;49.83;;;32.37;;
14939;SDS011;11825;51.898;8.202;2024-02-28T18:25:45;49.00;;;34.03;;
14939;SDS011;11825;51.898;8.202;2024-02-28T18:30:49;44.93;;;31.67;;
14939;SDS011;11825;51.898;8.202;2024-02-28T18:35:55;43.63;;;30.07;;
14939;SDS011;11825;51.898;8.202;2024-02-28T18:41:07;49.93;;;33.17;;
14939;SDS011;11825;51.898;8.202;2024-02-28T18:46:13;48.57;;;35.13;;
14939;SDS011;11825;51.898;8.202;2024-02-28T19:35:09;40.40;;;29.97;;
14939;SDS011;11825;51.898;8.202;2024-02-28T19:40:17;39.87;;;29.43;;
14939;SDS011;11825;51.898;8.202;2024-02-28T19:51:44;41.40;;;28.47;;
14939;SDS011;11825;51.898;8.202;2024-02-28T19:56:57;42.43;;;29.67;;
14939;SDS011;11825;51.898;8.202;2024-02-28T20:08:42;44.27;;;29.87;;
14939;SDS011;11825;51.898;8.202;2024-02-28T20:26:35;50.57;;;30.83;;
14939;SDS011;11825;51.898;8.202;2024-02-28T20:32:17;44.93;;;30.43;;
14939;SDS011;11825;51.898;8.202;2024-02-28T21:02:33;42.47;;;29.30;;
14939;SDS011;11825;51.898;8.202;2024-02-28T21:07:38;44.03;;;32.80;;
14939;SDS011;11825;51.898;8.202;2024-02-28T21:30:48;48.07;;;32.87;;
14939;SDS011;11825;51.898;8.202;2024-02-28T22:00:51;42.57;;;31.80;;
14939;SDS011;11825;51.898;8.202;2024-02-28T22:24:52;41.57;;;29.67;;
14939;SDS011;11825;51.898;8.202;2024-02-28T22:30:02;42.30;;;29.03;;
14939;SDS011;11825;51.898;8.202;2024-02-28T22:47:58;40.07;;;27.07;;
14939;SDS011;11825;51.898;8.202;2024-02-28T22:53:02;36.70;;;25.13;;
